LIRA/CIA METAR and TAF weather

Enter ICAO airport designator
Station Type Date Time Source
LIRA METAR 2020/11/27 12:50 UTC NOAA

LIRA 271250Z 18008KT 150V210 9999 SCT030 18/10 Q1020


Station Type Date Time Source
LIRA Decoded METAR 2020/11/27 12:50 UTC NOAA

Roma / Ciampino, Italy (LIRA) 41-47N 012-35E 105M
Nov 27, 2020 - 07:50 AM EST / 2020.11.27 1250 UTC
Wind: from the S (180 degrees) at 9 MPH (8 KT) (direction variable):0
Visibility: greater than 7 mile(s):0
Sky conditions: partly cloudy
Temperature: 64 F (18 C)
Dew Point: 50 F (10 C)
Relative Humidity: 59%
Pressure (altimeter): 30.12 in. Hg (1020 hPa)
ob: LIRA 271250Z 18008KT 150V210 9999 SCT030 18/10 Q1020
cycle: 13

Station Type Date Time Source
LIRA TAF 2020/11/27 12:21 UTC NOAA

TAF LIRA 271100Z 2712/2812 VRB05KT 9999 SCT030
BECMG 2718/2720 15010KT

Example: see airport list